aviador You're here:

KGED Decoded Metar

GEORGETOWN in DE, USA
Report Time2017-09-26 02:54:00
UTC Time2017-09-26 03:30:15
Flight Rules ifr IFR
Wind060° at 07 kt
W.Decomp.*RWY 10: 6.2 kt HW 3.3 kt LCW
RWY 04: 5.9 kt HW 3.7 kt RCW
W.Rank060° ranks 12
Current wind is below 060° avg. (8.3)
Visibility9999 m
Phenomena:N/A
Clouds:Overcast 009 Hf
Expected CloudBase > 800 ft AGL from Temp-Dew spread
Ceiling900 ft
Temp21°C (ISA +6)
Dew Point19°C (88% RH)
QNH1017 hPa
Density Alt932 ft
Elevation62 ft
Report Wrong Elevation
Raw Report
KGED 260254Z AUTO 06007KT 10SM OVC009 21/19 A3002 RMK AO2 SLP164
T02110194 50002=

Extra information for KGED:More info

Metar Taf Metar & Taf Last 4 Metars F.Rules Stats Wind Profile Meteogram Temp Stats Airport Information Weather charts Add Link Nearby VenuesMetar ALERT Operation Metar Decoded Social comments

AIRNAV info for KGED